createdAt,value
2022-12-16T00:01:44.422Z,2.63
2022-12-16T00:04:12.429Z,1.80
2022-12-16T00:06:40.470Z,2.93
2022-12-16T00:09:08.509Z,3.07
2022-12-16T00:11:36.496Z,2.40
2022-12-16T00:14:04.763Z,1.80
2022-12-16T00:16:32.920Z,2.30
2022-12-16T00:19:02.753Z,2.00
2022-12-16T00:21:30.733Z,3.70
2022-12-16T00:23:59.507Z,2.30
2022-12-16T00:26:29.675Z,2.17
2022-12-16T00:28:58.220Z,2.27
2022-12-16T00:31:27.574Z,2.80
2022-12-16T00:33:57.964Z,1.70
2022-12-16T00:36:27.488Z,1.97
2022-12-16T00:38:55.512Z,1.80
2022-12-16T00:41:23.610Z,1.90
2022-12-16T00:43:51.773Z,3.03
2022-12-16T00:46:19.888Z,3.00
2022-12-16T00:48:47.969Z,1.50
2022-12-16T00:51:16.011Z,2.10
2022-12-16T00:53:45.457Z,3.20
2022-12-16T00:56:15.278Z,3.40
2022-12-16T00:58:43.295Z,3.17
2022-12-16T01:01:11.856Z,2.30
2022-12-16T01:03:40.796Z,2.37
2022-12-16T01:06:11.475Z,2.10
2022-12-16T01:08:39.770Z,1.90
2022-12-16T01:11:12.005Z,3.00
2022-12-16T01:13:39.991Z,1.77
2022-12-16T01:16:08.568Z,2.97
2022-12-16T01:18:36.634Z,2.47
2022-12-16T01:21:05.861Z,2.37
2022-12-16T01:23:34.490Z,2.30
2022-12-16T01:26:03.398Z,1.70
2022-12-16T01:28:32.906Z,2.17
2022-12-16T01:31:02.597Z,1.60
2022-12-16T01:33:32.763Z,1.70
2022-12-16T01:36:02.282Z,2.80
2022-12-16T01:38:30.568Z,2.47
2022-12-16T01:40:58.976Z,2.33
2022-12-16T01:43:29.647Z,2.30
2022-12-16T01:46:04.326Z,1.53
2022-12-16T01:48:46.828Z,1.77
2022-12-16T01:51:22.515Z,1.20
2022-12-16T01:53:54.725Z,1.83
2022-12-16T01:56:25.388Z,1.77
2022-12-16T01:58:54.091Z,2.80
2022-12-16T02:01:25.157Z,1.80
2022-12-16T02:03:55.278Z,1.63
2022-12-16T02:06:23.779Z,2.50
2022-12-16T02:08:57.342Z,1.77
2022-12-16T02:11:51.527Z,2.80
2022-12-16T02:14:38.945Z,1.80
2022-12-16T02:17:14.205Z,2.07
2022-12-16T02:20:10.005Z,2.50
2022-12-16T02:22:50.812Z,2.17
2022-12-16T02:25:38.202Z,1.13
2022-12-16T02:28:12.722Z,2.10
2022-12-16T02:31:03.781Z,1.67
2022-12-16T02:33:52.220Z,1.30
2022-12-16T02:36:31.421Z,1.83
2022-12-16T02:39:02.085Z,1.60
2022-12-16T02:41:39.068Z,1.63
2022-12-16T02:44:09.505Z,1.57
2022-12-16T02:46:43.161Z,1.50
2022-12-16T02:49:46.452Z,1.60
2022-12-16T02:52:15.504Z,2.10
2022-12-16T02:54:45.036Z,2.10
2022-12-16T02:57:24.443Z,1.53
2022-12-16T03:00:00.624Z,2.03
2022-12-16T03:02:37.908Z,1.57
2022-12-16T03:05:10.409Z,1.20
2022-12-16T03:07:41.382Z,1.73
2022-12-16T03:10:13.969Z,0.97
2022-12-16T03:12:44.893Z,2.77
2022-12-16T03:15:14.618Z,1.77
2022-12-16T03:17:47.411Z,1.40
2022-12-16T03:20:20.414Z,2.93
2022-12-16T03:22:52.360Z,1.30
2022-12-16T03:25:22.275Z,1.33
2022-12-16T03:27:58.480Z,1.17
2022-12-16T03:30:30.367Z,1.70
2022-12-16T03:33:03.483Z,1.00
2022-12-16T03:35:38.977Z,2.67
2022-12-16T03:38:10.051Z,1.43
2022-12-16T03:40:40.890Z,2.20
2022-12-16T03:43:11.696Z,1.63
2022-12-16T03:45:41.796Z,1.10
2022-12-16T03:48:13.781Z,1.43
2022-12-16T03:50:42.199Z,1.70
2022-12-16T03:53:10.258Z,1.00
2022-12-16T03:55:38.280Z,0.90
2022-12-16T03:58:06.348Z,2.40
2022-12-16T04:00:34.545Z,1.57
2022-12-16T04:03:02.692Z,1.43
2022-12-16T04:05:32.230Z,1.63
2022-12-16T04:08:02.280Z,1.17
2022-12-16T04:10:48.019Z,1.30
2022-12-16T04:13:33.904Z,1.43
2022-12-16T04:16:19.486Z,1.83
2022-12-16T04:19:05.890Z,1.53
2022-12-16T04:21:52.372Z,1.73
2022-12-16T04:24:22.450Z,1.70
2022-12-16T04:27:13.568Z,1.77
2022-12-16T04:29:57.455Z,1.47
2022-12-16T04:32:25.494Z,1.07
2022-12-16T04:34:52.885Z,1.53
2022-12-16T04:37:47.991Z,1.63
2022-12-16T04:40:33.366Z,1.37
2022-12-16T04:43:19.000Z,1.20
2022-12-16T04:46:05.435Z,1.23
2022-12-16T04:48:50.998Z,1.00
2022-12-16T04:51:36.473Z,1.77
2022-12-16T04:54:23.592Z,0.90
2022-12-16T04:57:09.117Z,1.13
2022-12-16T04:59:54.655Z,0.67
2022-12-16T05:02:39.427Z,1.13
2022-12-16T05:05:37.335Z,1.27
2022-12-16T05:08:23.292Z,1.50
2022-12-16T05:11:09.984Z,0.97
2022-12-16T05:13:55.618Z,1.50
2022-12-16T05:16:41.078Z,1.00
2022-12-16T05:19:31.484Z,1.10
2022-12-16T05:22:16.997Z,1.00
2022-12-16T05:25:08.172Z,1.90
2022-12-16T05:27:55.002Z,1.20
2022-12-16T05:30:40.536Z,1.13
2022-12-16T05:33:26.230Z,0.90
2022-12-16T05:36:11.600Z,1.60
2022-12-16T05:38:57.016Z,0.90
2022-12-16T05:41:42.352Z,1.33
2022-12-16T05:44:28.915Z,0.90
2022-12-16T05:47:14.425Z,0.90
2022-12-16T05:50:00.161Z,2.00
2022-12-16T05:52:45.575Z,1.40
2022-12-16T05:55:34.033Z,1.20
2022-12-16T05:58:19.734Z,1.60
2022-12-16T06:01:06.642Z,2.10
2022-12-16T06:03:52.291Z,1.40
2022-12-16T06:06:37.835Z,0.80
2022-12-16T06:09:23.710Z,1.00
2022-12-16T06:12:09.934Z,1.07
2022-12-16T06:14:57.961Z,1.30
2022-12-16T06:17:45.011Z,0.80
2022-12-16T06:20:31.011Z,0.77
2022-12-16T06:23:19.877Z,1.43
2022-12-16T06:26:10.567Z,0.67
2022-12-16T06:28:55.884Z,1.20
2022-12-16T06:31:41.429Z,1.10
2022-12-16T06:34:28.454Z,1.07
2022-12-16T06:37:14.202Z,1.60
2022-12-16T06:39:59.506Z,1.73
2022-12-16T06:42:44.769Z,1.50
2022-12-16T06:45:34.527Z,1.20
2022-12-16T06:48:19.607Z,1.07
2022-12-16T06:51:06.478Z,1.63
2022-12-16T06:53:52.190Z,1.80
2022-12-16T06:56:37.752Z,1.10
2022-12-16T06:59:23.441Z,0.97
2022-12-16T07:02:09.247Z,1.00
2022-12-16T07:04:55.072Z,0.97
2022-12-16T07:07:42.129Z,1.07
2022-12-16T07:10:29.481Z,1.00
2022-12-16T07:13:16.827Z,0.77
2022-12-16T07:16:03.942Z,1.57
2022-12-16T07:18:50.106Z,1.47
2022-12-16T07:21:36.233Z,0.93
2022-12-16T07:24:24.505Z,0.80
2022-12-16T07:27:11.128Z,0.80
2022-12-16T07:29:56.774Z,1.00
2022-12-16T07:32:43.073Z,1.47
2022-12-16T07:35:29.369Z,0.70
2022-12-16T07:38:16.739Z,0.50
2022-12-16T07:41:03.727Z,1.00
2022-12-16T07:43:49.406Z,0.80
2022-12-16T07:46:35.744Z,1.20
2022-12-16T07:49:21.863Z,0.63
2022-12-16T07:52:08.619Z,0.93
2022-12-16T07:54:54.442Z,1.27
2022-12-16T07:57:44.137Z,0.87
2022-12-16T08:00:30.439Z,1.00
2022-12-16T08:03:16.077Z,1.10
2022-12-16T08:06:02.788Z,0.67
2022-12-16T08:08:49.415Z,1.10
2022-12-16T08:11:35.471Z,0.80
2022-12-16T08:14:23.060Z,1.20
2022-12-16T08:17:09.235Z,0.63
2022-12-16T08:19:54.722Z,2.40
2022-12-16T08:22:41.462Z,0.73
2022-12-16T08:25:27.348Z,0.80
2022-12-16T08:28:13.671Z,0.93
2022-12-16T08:31:00.950Z,0.77
2022-12-16T08:33:46.766Z,1.50
2022-12-16T08:36:33.101Z,0.80
2022-12-16T08:39:19.230Z,1.27
2022-12-16T08:42:04.759Z,0.67
2022-12-16T08:44:50.167Z,1.17
2022-12-16T08:47:37.436Z,1.47
2022-12-16T08:50:24.072Z,1.30
2022-12-16T08:53:09.445Z,1.70
2022-12-16T08:55:55.833Z,0.97
2022-12-16T08:58:42.350Z,1.23
2022-12-16T09:01:28.863Z,1.20
2022-12-16T09:04:17.385Z,1.40
2022-12-16T09:07:03.003Z,1.90
2022-12-16T09:09:45.314Z,1.93
2022-12-16T09:12:31.664Z,2.03
2022-12-16T09:15:18.111Z,2.73
2022-12-16T09:18:04.521Z,3.30
2022-12-16T09:20:51.791Z,3.43
2022-12-16T09:23:37.551Z,2.70
2022-12-16T09:26:22.817Z,2.45
2022-12-16T09:29:08.243Z,3.22
2022-12-16T09:31:54.268Z,3.83
2022-12-16T09:34:41.497Z,3.40
2022-12-16T09:37:29.321Z,3.55
2022-12-16T09:40:15.398Z,3.87
2022-12-16T09:43:09.716Z,3.03
2022-12-16T09:46:05.325Z,2.70
2022-12-16T09:49:01.250Z,2.73
2022-12-16T09:51:48.508Z,2.47
2022-12-16T09:54:40.775Z,2.67
2022-12-16T09:57:26.898Z,2.47
2022-12-16T10:00:17.906Z,2.13
2022-12-16T10:03:07.475Z,2.20
2022-12-16T10:06:03.150Z,2.77
2022-12-16T10:08:58.307Z,2.20
2022-12-16T10:11:54.179Z,2.73
2022-12-16T10:14:48.907Z,2.53
2022-12-16T10:17:41.061Z,3.00
2022-12-16T10:20:35.223Z,2.93
2022-12-16T10:23:40.447Z,2.73
2022-12-16T10:26:33.852Z,2.70
2022-12-16T10:29:31.492Z,1.80
2022-12-16T10:32:17.198Z,2.27
2022-12-16T10:35:03.121Z,2.40
2022-12-16T10:37:52.632Z,2.20
2022-12-16T10:40:43.325Z,1.67
2022-12-16T10:43:35.078Z,1.33
2022-12-16T10:46:27.915Z,1.37
2022-12-16T10:49:14.632Z,1.53
2022-12-16T10:52:05.301Z,1.87
2022-12-16T10:54:59.172Z,1.30
2022-12-16T10:57:55.798Z,1.33
2022-12-16T11:00:59.739Z,1.50
2022-12-16T11:03:49.266Z,1.20
2022-12-16T11:06:38.120Z,1.35
2022-12-16T11:09:42.681Z,1.20
2022-12-16T11:12:40.430Z,1.20
2022-12-16T11:15:42.092Z,1.50
2022-12-16T11:18:30.517Z,1.80
2022-12-16T11:21:31.734Z,1.38
2022-12-16T11:24:31.519Z,1.80
2022-12-16T11:27:19.071Z,2.25
2022-12-16T11:30:16.026Z,2.10
2022-12-16T11:33:06.977Z,1.60
2022-12-16T11:35:56.132Z,1.38
2022-12-16T11:38:46.734Z,1.80
2022-12-16T11:41:42.401Z,2.00
2022-12-16T11:44:36.468Z,1.53
2022-12-16T11:47:27.580Z,1.30
2022-12-16T11:50:15.591Z,2.03
2022-12-16T11:53:05.065Z,1.77
2022-12-16T11:56:06.494Z,2.10
2022-12-16T11:59:01.323Z,1.73
2022-12-16T12:01:51.839Z,1.65
2022-12-16T12:04:41.290Z,1.98
2022-12-16T12:07:45.620Z,1.88
2022-12-16T12:10:54.300Z,2.00
2022-12-16T12:13:58.291Z,1.88
2022-12-16T12:16:57.996Z,1.80
2022-12-16T12:19:53.067Z,1.80
2022-12-16T12:22:51.277Z,2.35
2022-12-16T12:25:42.669Z,1.77
2022-12-16T12:28:40.965Z,2.00
2022-12-16T12:31:38.352Z,1.77
2022-12-16T12:34:44.265Z,2.10
2022-12-16T12:37:39.869Z,1.70
2022-12-16T12:40:45.368Z,1.70
2022-12-16T12:43:43.648Z,1.43
2022-12-16T12:46:40.078Z,2.30
2022-12-16T12:49:31.989Z,1.90
2022-12-16T12:52:25.564Z,1.83
2022-12-16T12:55:16.184Z,1.43
2022-12-16T12:58:03.758Z,2.07
2022-12-16T13:00:56.168Z,1.57
2022-12-16T13:03:53.169Z,1.33
2022-12-16T13:06:41.103Z,1.83
2022-12-16T13:09:47.793Z,1.57
2022-12-16T13:12:47.487Z,1.10
2022-12-16T13:15:52.920Z,1.17
2022-12-16T13:18:47.572Z,1.27
2022-12-16T13:22:13.498Z,1.50
2022-12-16T13:25:06.580Z,1.30
2022-12-16T13:28:07.742Z,1.70
2022-12-16T13:30:54.351Z,1.30
2022-12-16T13:33:43.705Z,2.57
2022-12-16T13:36:32.967Z,2.87
2022-12-16T13:39:37.990Z,1.70
2022-12-16T13:42:23.542Z,2.13
2022-12-16T13:45:34.062Z,2.27
2022-12-16T13:48:22.157Z,1.60
2022-12-16T13:51:18.121Z,2.53
2022-12-16T13:54:10.242Z,1.63
2022-12-16T13:56:59.470Z,2.23
2022-12-16T13:59:49.000Z,2.50
2022-12-16T14:02:45.476Z,2.60
2022-12-16T14:05:37.874Z,3.40
2022-12-16T14:08:25.311Z,2.80
2022-12-16T14:11:19.311Z,2.70
2022-12-16T14:14:10.965Z,3.10
2022-12-16T14:17:05.906Z,2.97
2022-12-16T14:20:00.307Z,2.90
2022-12-16T14:22:58.919Z,3.03
2022-12-16T14:25:44.883Z,3.23
2022-12-16T14:28:41.229Z,2.53
2022-12-16T14:31:34.449Z,2.90
2022-12-16T14:34:21.245Z,2.23
2022-12-16T14:37:06.865Z,2.87
2022-12-16T14:39:59.122Z,2.40
2022-12-16T14:42:46.554Z,2.23
2022-12-16T14:45:47.540Z,2.43
2022-12-16T14:48:45.951Z,1.73
2022-12-16T14:51:45.506Z,1.77
2022-12-16T14:54:49.995Z,2.30
2022-12-16T14:57:37.471Z,2.43
2022-12-16T15:00:34.625Z,2.20
2022-12-16T15:03:30.218Z,1.90
2022-12-16T15:06:18.175Z,1.83
2022-12-16T15:09:09.586Z,2.40
2022-12-16T15:11:58.015Z,3.33
2022-12-16T15:14:49.191Z,2.17
2022-12-16T15:17:40.354Z,1.87
2022-12-16T15:20:37.939Z,1.80
2022-12-16T15:23:29.534Z,1.73
2022-12-16T15:26:17.029Z,2.13
2022-12-16T15:29:03.257Z,2.83
2022-12-16T15:31:51.764Z,1.80
2022-12-16T15:34:56.109Z,1.97
2022-12-16T15:37:48.417Z,2.40
2022-12-16T15:40:45.296Z,2.00
2022-12-16T15:43:46.529Z,2.63
2022-12-16T15:46:36.980Z,1.70
2022-12-16T15:49:23.294Z,1.63
2022-12-16T15:52:09.540Z,2.13
2022-12-16T15:55:11.822Z,1.87
2022-12-16T15:57:59.494Z,2.27
2022-12-16T16:00:47.617Z,2.10
2022-12-16T16:03:40.381Z,1.93
2022-12-16T16:06:35.025Z,2.43
2022-12-16T16:09:21.031Z,2.57
2022-12-16T16:12:08.122Z,1.70
2022-12-16T16:14:53.726Z,2.17
2022-12-16T16:17:41.354Z,1.87
2022-12-16T16:20:33.416Z,2.47
2022-12-16T16:23:19.449Z,1.87
2022-12-16T16:26:06.840Z,2.13
2022-12-16T16:28:54.568Z,1.60
2022-12-16T16:31:40.558Z,2.80
2022-12-16T16:34:26.100Z,2.43
2022-12-16T16:37:15.553Z,2.30
2022-12-16T16:40:02.972Z,2.10
2022-12-16T16:42:49.247Z,2.90
2022-12-16T16:45:37.054Z,1.87
2022-12-16T16:48:29.248Z,1.93
2022-12-16T16:51:16.927Z,1.83
2022-12-16T16:54:03.066Z,2.13
2022-12-16T16:56:51.438Z,2.57
2022-12-16T16:59:37.476Z,3.00
2022-12-16T17:02:40.539Z,3.07
2022-12-16T17:05:27.722Z,3.10
2022-12-16T17:08:13.441Z,3.30
2022-12-16T17:10:58.887Z,3.23
2022-12-16T17:13:44.842Z,3.33
2022-12-16T17:16:31.789Z,3.57
2022-12-16T17:19:20.689Z,3.00
2022-12-16T17:22:06.010Z,3.40
2022-12-16T17:24:54.373Z,2.60
2022-12-16T17:27:43.366Z,3.10
2022-12-16T17:30:34.020Z,4.23
2022-12-16T17:33:19.572Z,3.83
2022-12-16T17:36:08.980Z,4.63
2022-12-16T17:38:58.360Z,3.97
2022-12-16T17:41:45.798Z,3.30
2022-12-16T17:44:27.894Z,2.53
2022-12-16T17:47:13.284Z,3.17
2022-12-16T17:49:58.859Z,3.47
2022-12-16T17:52:45.671Z,3.43
2022-12-16T17:55:32.217Z,3.20
2022-12-16T17:58:17.545Z,3.07
2022-12-16T18:01:03.725Z,3.77
2022-12-16T18:03:46.146Z,3.73
2022-12-16T18:06:31.785Z,3.83
2022-12-16T18:09:18.629Z,3.67
2022-12-16T18:12:03.963Z,2.73
2022-12-16T18:14:54.890Z,3.27
2022-12-16T18:17:40.504Z,3.03
2022-12-16T18:20:27.008Z,3.60
2022-12-16T18:23:13.116Z,5.47
2022-12-16T18:25:59.814Z,2.97
2022-12-16T18:28:46.008Z,5.57
2022-12-16T18:31:31.682Z,3.07
2022-12-16T18:34:18.000Z,3.60
2022-12-16T18:37:03.562Z,2.97
2022-12-16T18:39:49.580Z,4.13
2022-12-16T18:42:36.580Z,4.00
2022-12-16T18:45:22.493Z,2.73
2022-12-16T18:48:07.864Z,3.43
2022-12-16T18:50:53.242Z,5.60
2022-12-16T18:53:42.523Z,2.73
2022-12-16T18:56:28.799Z,3.43
2022-12-16T18:59:17.223Z,3.00
2022-12-16T19:02:03.030Z,3.80
2022-12-16T19:04:49.689Z,3.10
2022-12-16T19:07:35.207Z,2.87
2022-12-16T19:10:20.705Z,4.37
2022-12-16T19:13:06.517Z,3.87
2022-12-16T19:15:54.313Z,6.03
2022-12-16T19:18:40.952Z,2.90
2022-12-16T19:21:28.252Z,3.67
2022-12-16T19:24:13.995Z,3.87
2022-12-16T19:26:59.525Z,3.03
2022-12-16T19:29:45.064Z,4.90
2022-12-16T19:32:31.667Z,3.30
2022-12-16T19:35:17.479Z,2.60
2022-12-16T19:38:03.324Z,3.27
2022-12-16T19:40:49.103Z,2.53
2022-12-16T19:43:35.403Z,2.13
2022-12-16T19:46:20.988Z,2.97
2022-12-16T19:49:08.302Z,2.33
2022-12-16T19:51:56.136Z,2.87
2022-12-16T19:54:41.578Z,4.17
2022-12-16T19:57:27.051Z,3.07
2022-12-16T20:00:12.637Z,2.73
2022-12-16T20:03:03.679Z,3.07
2022-12-16T20:05:50.661Z,2.90
2022-12-16T20:08:37.546Z,3.27
2022-12-16T20:11:25.215Z,2.33
2022-12-16T20:14:12.177Z,2.50
2022-12-16T20:16:58.062Z,3.93
2022-12-16T20:19:44.153Z,2.30
2022-12-16T20:22:30.743Z,3.53
2022-12-16T20:25:16.391Z,3.63
2022-12-16T20:28:02.644Z,3.27
2022-12-16T20:30:48.361Z,2.57
2022-12-16T20:33:34.296Z,4.30
2022-12-16T20:36:21.771Z,3.57
2022-12-16T20:39:08.517Z,2.50
2022-12-16T20:41:56.272Z,3.00
2022-12-16T20:44:42.159Z,2.57
2022-12-16T20:47:28.153Z,2.77
2022-12-16T20:50:13.588Z,3.17
2022-12-16T20:52:58.856Z,2.43
2022-12-16T20:55:46.153Z,3.03
2022-12-16T20:58:35.876Z,2.30
2022-12-16T21:01:22.144Z,3.53
2022-12-16T21:04:07.901Z,3.03
2022-12-16T21:06:53.771Z,4.03
2022-12-16T21:09:41.615Z,3.63
2022-12-16T21:12:28.675Z,3.73
2022-12-16T21:15:14.212Z,3.50
2022-12-16T21:18:00.002Z,3.73
2022-12-16T21:20:45.319Z,3.87
2022-12-16T21:23:30.562Z,3.73
2022-12-16T21:26:18.420Z,4.67
2022-12-16T21:29:05.296Z,4.87
2022-12-16T21:31:50.991Z,4.73
2022-12-16T21:34:39.917Z,2.17
2022-12-16T21:37:25.675Z,3.60
2022-12-16T21:40:11.856Z,5.20
2022-12-16T21:42:57.595Z,3.27
2022-12-16T21:45:45.180Z,4.17
2022-12-16T21:48:30.816Z,5.33
2022-12-16T21:51:16.263Z,3.90
2022-12-16T21:54:11.042Z,3.17
2022-12-16T21:56:56.779Z,3.53
2022-12-16T21:59:43.842Z,4.07
2022-12-16T22:02:32.368Z,3.63
2022-12-16T22:05:18.234Z,3.77
2022-12-16T22:08:04.243Z,4.23
2022-12-16T22:10:49.969Z,3.97
2022-12-16T22:13:36.736Z,3.90
2022-12-16T22:16:22.875Z,3.27
2022-12-16T22:19:12.800Z,4.40
2022-12-16T22:21:58.625Z,3.43
2022-12-16T22:24:44.332Z,3.17
2022-12-16T22:27:29.525Z,4.40
2022-12-16T22:30:15.345Z,4.67
2022-12-16T22:33:09.954Z,3.53
2022-12-16T22:35:57.082Z,5.00
2022-12-16T22:38:42.659Z,3.87
2022-12-16T22:41:28.220Z,6.93
2022-12-16T22:44:13.810Z,3.13
2022-12-16T22:46:59.460Z,4.33
2022-12-16T22:49:44.980Z,4.93
2022-12-16T22:52:31.741Z,4.77
2022-12-16T22:55:17.312Z,2.43
2022-12-16T22:58:02.012Z,2.03
2022-12-16T23:00:47.833Z,3.60
2022-12-16T23:03:35.077Z,2.47
2022-12-16T23:06:21.119Z,2.70
2022-12-16T23:09:07.737Z,2.30
2022-12-16T23:11:56.431Z,2.77
2022-12-16T23:14:43.080Z,3.50
2022-12-16T23:17:32.349Z,2.73
2022-12-16T23:20:18.000Z,4.77
2022-12-16T23:23:14.784Z,2.93
2022-12-16T23:26:01.428Z,1.63
2022-12-16T23:28:46.950Z,2.23
2022-12-16T23:31:32.658Z,2.43
2022-12-16T23:34:18.387Z,8.00
2022-12-16T23:37:03.865Z,2.13
2022-12-16T23:39:49.359Z,2.20
2022-12-16T23:42:36.183Z,2.63
2022-12-16T23:45:21.682Z,3.33
2022-12-16T23:48:07.175Z,5.00
2022-12-16T23:51:07.600Z,1.23
2022-12-16T23:53:53.232Z,3.17
2022-12-16T23:56:43.055Z,2.80
2022-12-16T23:59:29.884Z,2.60
